createdAt,value
2018-11-05T00:01:29.124Z,8.10
2018-11-05T00:03:57.612Z,8.10
2018-11-05T00:06:26.086Z,8.10
2018-11-05T00:08:54.530Z,8.00
2018-11-05T00:11:23.052Z,8.00
2018-11-05T00:13:51.546Z,8.00
2018-11-05T00:16:20.009Z,7.90
2018-11-05T00:18:48.517Z,8.00
2018-11-05T00:21:16.969Z,8.00
2018-11-05T00:23:45.489Z,7.90
2018-11-05T00:26:13.943Z,8.00
2018-11-05T00:28:42.387Z,8.00
2018-11-05T00:31:10.821Z,8.00
2018-11-05T00:33:39.294Z,8.00
2018-11-05T00:36:07.754Z,8.00
2018-11-05T00:38:36.165Z,8.00
2018-11-05T00:41:04.685Z,8.00
2018-11-05T00:43:33.139Z,7.90
2018-11-05T00:46:01.579Z,7.90
2018-11-05T00:48:30.024Z,7.90
2018-11-05T00:50:58.430Z,7.80
2018-11-05T00:53:26.865Z,7.80
2018-11-05T00:55:55.436Z,7.80
2018-11-05T00:58:23.882Z,7.80
2018-11-05T01:00:52.318Z,7.80
2018-11-05T01:03:20.750Z,7.90
2018-11-05T01:05:49.199Z,7.90
2018-11-05T01:08:17.613Z,7.90
2018-11-05T01:10:46.083Z,7.90
2018-11-05T01:13:14.540Z,8.00
2018-11-05T01:15:42.955Z,7.90
2018-11-05T01:18:11.381Z,7.90
2018-11-05T01:20:39.944Z,7.90
2018-11-05T01:23:08.359Z,7.90
2018-11-05T01:25:36.827Z,7.90
2018-11-05T01:28:05.561Z,7.90
2018-11-05T01:30:33.993Z,7.90
2018-11-05T01:33:02.462Z,7.90
2018-11-05T01:35:30.886Z,7.90
2018-11-05T01:37:59.331Z,8.00
2018-11-05T01:40:27.790Z,8.00
2018-11-05T01:42:56.226Z,8.00
2018-11-05T01:45:24.685Z,8.00
2018-11-05T01:47:53.121Z,8.10
2018-11-05T01:50:21.528Z,8.00
2018-11-05T01:52:49.942Z,8.00
2018-11-05T01:55:18.374Z,8.00
2018-11-05T01:57:46.811Z,8.00
2018-11-05T02:00:16.654Z,7.90
2018-11-05T02:02:46.793Z,7.90
2018-11-05T02:05:15.222Z,8.00
2018-11-05T02:07:44.892Z,8.00
2018-11-05T02:10:15.631Z,8.10
2018-11-05T02:12:43.987Z,8.10
2018-11-05T02:15:12.860Z,8.10
2018-11-05T02:17:42.877Z,8.20
2018-11-05T02:20:11.997Z,8.20
2018-11-05T02:22:40.549Z,8.20
2018-11-05T02:25:10.235Z,8.30
2018-11-05T02:27:38.692Z,8.40
2018-11-05T02:30:12.633Z,8.40
2018-11-05T02:32:41.089Z,8.50
2018-11-05T02:35:11.428Z,8.50
2018-11-05T02:37:40.427Z,8.50
2018-11-05T02:40:11.580Z,8.50
2018-11-05T02:42:40.763Z,8.40
2018-11-05T02:45:10.356Z,8.40
2018-11-05T02:47:38.778Z,8.30
2018-11-05T02:50:08.567Z,8.20
2018-11-05T02:52:37.350Z,8.10
2018-11-05T02:55:06.483Z,8.00
2018-11-05T02:57:34.969Z,8.00
2018-11-05T03:00:03.532Z,7.90
2018-11-05T03:02:31.982Z,7.80
2018-11-05T03:05:00.403Z,7.80
2018-11-05T03:07:28.953Z,7.70
2018-11-05T03:09:57.468Z,7.70
2018-11-05T03:12:25.927Z,7.70
2018-11-05T03:14:54.390Z,7.70
2018-11-05T03:17:22.806Z,7.60
2018-11-05T03:19:51.245Z,7.60
2018-11-05T03:22:19.685Z,7.60
2018-11-05T03:24:48.083Z,7.50
2018-11-05T03:27:16.524Z,7.50
2018-11-05T03:29:44.949Z,7.50
2018-11-05T03:32:13.370Z,7.40
2018-11-05T03:34:41.794Z,7.40
2018-11-05T03:37:10.236Z,7.40
2018-11-05T03:39:38.677Z,7.30
2018-11-05T03:42:07.243Z,7.30
2018-11-05T03:44:35.664Z,7.20
2018-11-05T03:47:04.093Z,7.30
2018-11-05T03:49:32.493Z,7.30
2018-11-05T03:52:00.970Z,7.40
2018-11-05T03:54:29.488Z,7.40
2018-11-05T03:56:57.941Z,7.40
2018-11-05T03:59:26.382Z,7.50
2018-11-05T04:01:54.852Z,7.40
2018-11-05T04:04:23.374Z,7.40
2018-11-05T04:06:51.865Z,7.40
2018-11-05T04:09:20.280Z,7.50
2018-11-05T04:11:48.721Z,7.60
2018-11-05T04:14:17.143Z,7.60
2018-11-05T04:16:45.579Z,7.70
2018-11-05T04:19:14.027Z,7.70
2018-11-05T04:21:44.175Z,7.70
2018-11-05T04:24:13.723Z,7.70
2018-11-05T04:26:43.258Z,7.80
2018-11-05T04:29:11.703Z,7.80
2018-11-05T04:31:40.771Z,7.80
2018-11-05T04:34:10.142Z,7.80
2018-11-05T04:36:38.532Z,7.80
2018-11-05T04:39:10.892Z,7.80
2018-11-05T04:41:39.341Z,7.90
2018-11-05T04:44:08.050Z,7.80
2018-11-05T04:46:36.503Z,7.80
2018-11-05T04:49:05.125Z,7.80
2018-11-05T04:51:33.560Z,7.80
2018-11-05T04:54:02.047Z,7.80
2018-11-05T04:56:30.518Z,7.70
2018-11-05T04:58:58.953Z,7.70
2018-11-05T05:01:27.421Z,7.60
2018-11-05T05:03:55.838Z,7.60
2018-11-05T05:06:24.272Z,7.60
2018-11-05T05:08:52.707Z,7.60
2018-11-05T05:11:21.122Z,7.50
2018-11-05T05:13:49.536Z,7.50
2018-11-05T05:16:18.041Z,7.40
2018-11-05T05:18:46.442Z,7.30
2018-11-05T05:21:14.923Z,7.30
2018-11-05T05:23:43.370Z,7.30
2018-11-05T05:26:11.778Z,7.30
2018-11-05T05:28:40.218Z,7.20
2018-11-05T05:31:08.629Z,7.20
2018-11-05T05:33:37.162Z,7.20
2018-11-05T05:36:05.829Z,7.20
2018-11-05T05:38:34.283Z,7.20
2018-11-05T05:41:02.724Z,7.30
2018-11-05T05:43:31.199Z,7.30
2018-11-05T05:45:59.626Z,7.30
2018-11-05T05:48:28.042Z,7.30
2018-11-05T05:50:56.607Z,7.20
2018-11-05T05:53:25.125Z,7.20
2018-11-05T05:55:53.603Z,7.30
2018-11-05T05:58:22.939Z,7.20
2018-11-05T06:00:51.406Z,7.20
2018-11-05T06:03:19.875Z,7.30
2018-11-05T06:05:48.357Z,7.30
2018-11-05T06:08:16.806Z,7.40
2018-11-05T06:10:45.289Z,7.40
2018-11-05T06:13:13.750Z,7.40
2018-11-05T06:15:42.204Z,7.50
2018-11-05T06:18:10.634Z,7.50
2018-11-05T06:20:39.058Z,7.50
2018-11-05T06:23:07.485Z,7.60
2018-11-05T06:25:35.970Z,7.60
2018-11-05T06:28:04.445Z,7.70
2018-11-05T06:30:33.019Z,7.70
2018-11-05T06:33:01.506Z,7.70
2018-11-05T06:35:30.045Z,7.70
2018-11-05T06:37:58.426Z,7.70
2018-11-05T06:40:26.965Z,7.70
2018-11-05T06:42:55.404Z,7.70
2018-11-05T06:45:23.844Z,7.80
2018-11-05T06:47:52.238Z,7.80
2018-11-05T06:50:22.983Z,7.80
2018-11-05T06:52:51.473Z,7.80
2018-11-05T06:55:19.950Z,7.90
2018-11-05T06:57:48.516Z,7.90
2018-11-05T07:00:21.299Z,8.00
2018-11-05T07:02:49.753Z,8.00
2018-11-05T07:05:18.298Z,8.00
2018-11-05T07:07:46.760Z,8.00
2018-11-05T07:10:15.924Z,8.00
2018-11-05T07:12:44.697Z,8.10
2018-11-05T07:15:14.433Z,8.10
2018-11-05T07:17:43.731Z,8.20
2018-11-05T07:20:13.936Z,8.20
2018-11-05T07:22:42.809Z,8.30
2018-11-05T07:25:12.649Z,8.40
2018-11-05T07:27:41.187Z,8.50
2018-11-05T07:30:15.895Z,8.60
2018-11-05T07:32:44.579Z,8.60
2018-11-05T07:35:13.847Z,8.70
2018-11-05T07:37:42.840Z,8.80
2018-11-05T07:40:12.958Z,8.90
2018-11-05T07:42:41.468Z,8.90
2018-11-05T07:45:12.688Z,9.00
2018-11-05T07:47:41.656Z,9.10
2018-11-05T07:50:11.698Z,9.20
2018-11-05T07:52:40.476Z,9.20
2018-11-05T07:55:10.764Z,9.20
2018-11-05T07:57:40.285Z,9.10
2018-11-05T08:00:16.013Z,9.20
2018-11-05T08:02:45.404Z,9.20
2018-11-05T08:05:14.544Z,9.30
2018-11-05T08:07:42.970Z,9.30
2018-11-05T08:10:11.824Z,9.40
2018-11-05T08:12:40.815Z,9.50
2018-11-05T08:15:12.150Z,9.60
2018-11-05T08:17:40.931Z,9.60
2018-11-05T08:20:09.726Z,9.80
2018-11-05T08:22:38.253Z,9.90
2018-11-05T08:25:14.069Z,10.10
2018-11-05T08:27:42.598Z,10.20
2018-11-05T08:30:14.132Z,10.40
2018-11-05T08:32:42.587Z,10.50
2018-11-05T08:35:11.870Z,10.80
2018-11-05T08:37:40.884Z,11.10
2018-11-05T08:40:12.764Z,11.30
2018-11-05T08:42:41.495Z,11.40
2018-11-05T08:45:10.524Z,11.40
2018-11-05T08:47:38.978Z,11.50
2018-11-05T08:50:09.345Z,11.70
2018-11-05T08:52:37.741Z,11.80
2018-11-05T08:55:08.011Z,11.90
2018-11-05T08:57:36.521Z,12.00
2018-11-05T09:00:06.130Z,12.00
2018-11-05T09:02:34.566Z,12.00
2018-11-05T09:05:03.034Z,11.90
2018-11-05T09:07:31.432Z,11.80
2018-11-05T09:09:59.939Z,11.80
2018-11-05T09:12:28.327Z,11.80
2018-11-05T09:14:56.793Z,11.90
2018-11-05T09:17:25.216Z,11.90
2018-11-05T09:19:53.682Z,11.90
2018-11-05T09:22:22.115Z,12.00
2018-11-05T09:24:50.557Z,12.10
2018-11-05T09:27:18.995Z,12.30
2018-11-05T09:29:47.434Z,12.60
2018-11-05T09:32:15.880Z,12.80
2018-11-05T09:34:44.323Z,13.00
2018-11-05T09:37:12.769Z,13.00
2018-11-05T09:39:41.305Z,13.10
2018-11-05T09:42:09.755Z,13.40
2018-11-05T09:44:38.208Z,13.80
2018-11-05T09:47:06.920Z,14.00
2018-11-05T09:49:35.420Z,14.10
2018-11-05T09:52:03.890Z,14.40
2018-11-05T09:54:32.323Z,14.60
2018-11-05T09:57:00.848Z,14.50
2018-11-05T09:59:29.333Z,14.90
2018-11-05T10:01:57.798Z,16.40
2018-11-05T10:04:26.435Z,18.30
2018-11-05T10:06:54.764Z,19.20
2018-11-05T10:09:23.200Z,19.70
2018-11-05T10:11:51.736Z,20.60
2018-11-05T10:14:20.224Z,21.40
2018-11-05T10:16:48.704Z,22.20
2018-11-05T10:19:17.201Z,22.30
2018-11-05T10:21:45.610Z,22.20
2018-11-05T10:24:14.266Z,22.20
2018-11-05T10:26:42.823Z,22.00
2018-11-05T10:29:11.292Z,22.30
2018-11-05T10:31:39.763Z,23.10
2018-11-05T10:34:08.259Z,23.50
2018-11-05T10:36:36.749Z,23.80
2018-11-05T10:39:07.704Z,24.30
2018-11-05T10:41:36.278Z,24.40
2018-11-05T10:44:05.247Z,24.90
2018-11-05T10:46:33.724Z,25.20
2018-11-05T10:49:02.155Z,25.70
2018-11-05T10:51:30.924Z,26.00
2018-11-05T10:53:59.300Z,25.90
2018-11-05T10:56:27.753Z,26.30
2018-11-05T10:58:56.191Z,26.50
2018-11-05T11:01:30.048Z,26.50
2018-11-05T11:04:04.014Z,26.10
2018-11-05T11:06:32.229Z,26.00
2018-11-05T11:09:00.726Z,24.50
2018-11-05T11:11:29.167Z,24.20
2018-11-05T11:13:57.663Z,24.60
2018-11-05T11:16:26.088Z,24.10
2018-11-05T11:18:54.527Z,22.70
2018-11-05T11:21:23.040Z,22.30
2018-11-05T11:23:51.450Z,21.60
2018-11-05T11:26:19.904Z,21.00
2018-11-05T11:28:48.416Z,20.70
2018-11-05T11:31:16.759Z,20.90
2018-11-05T11:33:45.180Z,21.60
2018-11-05T11:36:13.655Z,21.70
2018-11-05T11:38:42.071Z,22.60
2018-11-05T11:41:10.490Z,23.80
2018-11-05T11:43:38.971Z,24.80
2018-11-05T11:46:07.437Z,25.30
2018-11-05T11:48:35.927Z,24.30
2018-11-05T11:51:04.387Z,22.50
2018-11-05T11:53:33.004Z,21.20
2018-11-05T11:56:01.244Z,20.00
2018-11-05T11:58:29.726Z,19.80
2018-11-05T12:00:58.153Z,21.50
2018-11-05T12:03:26.569Z,22.60
2018-11-05T12:05:54.987Z,21.90
2018-11-05T12:08:23.418Z,21.80
2018-11-05T12:10:51.898Z,21.50
2018-11-05T12:13:20.363Z,22.40
2018-11-05T12:15:48.834Z,22.40
2018-11-05T12:18:17.285Z,21.60
2018-11-05T12:20:45.721Z,21.40
2018-11-05T12:23:14.174Z,21.50
2018-11-05T12:25:42.592Z,22.10
2018-11-05T12:28:11.071Z,23.00
2018-11-05T12:30:39.481Z,24.00
2018-11-05T12:33:07.921Z,25.00
2018-11-05T12:35:36.346Z,25.00
2018-11-05T12:38:05.597Z,25.10
2018-11-05T12:40:34.023Z,25.30
2018-11-05T12:43:02.457Z,25.80
2018-11-05T12:45:30.990Z,25.80
2018-11-05T12:47:59.438Z,26.00
2018-11-05T12:50:27.886Z,26.10
2018-11-05T12:52:56.306Z,26.40
2018-11-05T12:55:24.743Z,26.10
2018-11-05T12:57:53.170Z,26.10
2018-11-05T13:00:23.888Z,25.90
2018-11-05T13:02:56.249Z,25.80
2018-11-05T13:05:25.766Z,25.70
2018-11-05T13:07:54.306Z,25.40
2018-11-05T13:10:22.882Z,24.90
2018-11-05T13:12:51.349Z,25.00
2018-11-05T13:15:19.871Z,25.00
2018-11-05T13:17:48.268Z,24.70
2018-11-05T13:20:17.862Z,24.40
2018-11-05T13:22:46.591Z,24.30
2018-11-05T13:25:15.064Z,24.40
2018-11-05T13:27:44.878Z,24.70
2018-11-05T13:30:14.142Z,25.00
2018-11-05T13:32:43.231Z,24.60
2018-11-05T13:35:12.857Z,24.50
2018-11-05T13:37:41.852Z,24.60
2018-11-05T13:40:12.351Z,25.00
2018-11-05T13:42:40.898Z,25.30
2018-11-05T13:45:10.652Z,24.80
2018-11-05T13:47:40.091Z,24.60
2018-11-05T13:50:08.348Z,24.70
2018-11-05T13:52:36.881Z,24.80
2018-11-05T13:55:05.963Z,24.70
2018-11-05T13:57:34.186Z,24.50
2018-11-05T14:00:02.956Z,24.50
2018-11-05T14:02:31.396Z,23.50
2018-11-05T14:04:59.849Z,23.20
2018-11-05T14:07:28.275Z,22.90
2018-11-05T14:09:56.680Z,21.80
2018-11-05T14:12:25.118Z,20.70
2018-11-05T14:14:53.528Z,19.60
2018-11-05T14:17:21.965Z,18.80
2018-11-05T14:19:50.383Z,18.00
2018-11-05T14:22:18.796Z,17.60
2018-11-05T14:24:47.217Z,17.10
2018-11-05T14:27:15.649Z,16.80
2018-11-05T14:29:44.565Z,16.60
2018-11-05T14:32:12.591Z,16.40
2018-11-05T14:34:40.966Z,16.30
2018-11-05T14:37:09.440Z,16.10
2018-11-05T14:39:37.846Z,16.00
2018-11-05T14:42:06.294Z,15.90
2018-11-05T14:44:34.695Z,15.80
2018-11-05T14:47:03.144Z,15.60
2018-11-05T14:49:31.583Z,15.60
2018-11-05T14:52:00.049Z,15.50
2018-11-05T14:54:28.460Z,15.40
2018-11-05T14:56:56.923Z,15.40
2018-11-05T14:59:25.340Z,15.40
2018-11-05T15:01:59.239Z,15.30
2018-11-05T15:04:27.670Z,15.20
2018-11-05T15:06:56.165Z,15.10
2018-11-05T15:09:24.595Z,15.00
2018-11-05T15:11:53.031Z,14.90
2018-11-05T15:14:21.587Z,14.80
2018-11-05T15:16:50.049Z,14.80
2018-11-05T15:19:18.796Z,14.70
2018-11-05T15:21:46.942Z,14.70
2018-11-05T15:24:15.393Z,14.60
2018-11-05T15:26:43.912Z,14.50
2018-11-05T15:29:12.418Z,14.50
2018-11-05T15:31:40.842Z,14.50
2018-11-05T15:34:09.322Z,14.40
2018-11-05T15:36:37.799Z,14.40
2018-11-05T15:39:07.453Z,14.30
2018-11-05T15:41:36.391Z,14.30
2018-11-05T15:44:06.210Z,14.20
2018-11-05T15:46:34.666Z,14.10
2018-11-05T15:49:03.231Z,14.10
2018-11-05T15:51:31.808Z,14.00
2018-11-05T15:54:00.245Z,14.00
2018-11-05T15:56:29.380Z,13.90
2018-11-05T15:58:57.891Z,13.80
2018-11-05T16:01:26.547Z,13.70
2018-11-05T16:03:54.974Z,13.60
2018-11-05T16:06:23.955Z,13.50
2018-11-05T16:08:52.452Z,13.50
2018-11-05T16:11:20.917Z,13.40
2018-11-05T16:13:49.393Z,13.30
2018-11-05T16:16:17.876Z,13.20
2018-11-05T16:18:46.366Z,13.10
2018-11-05T16:21:14.834Z,13.00
2018-11-05T16:23:43.341Z,12.80
2018-11-05T16:26:11.760Z,12.80
2018-11-05T16:28:40.210Z,12.80
2018-11-05T16:31:08.691Z,12.80
2018-11-05T16:33:37.135Z,12.70
2018-11-05T16:36:06.075Z,12.70
2018-11-05T16:38:34.527Z,12.60
2018-11-05T16:41:02.987Z,12.60
2018-11-05T16:43:31.425Z,12.60
2018-11-05T16:45:59.916Z,12.60
2018-11-05T16:48:28.378Z,12.60
2018-11-05T16:50:56.807Z,12.60
2018-11-05T16:53:25.255Z,12.60
2018-11-05T16:55:53.737Z,12.60
2018-11-05T16:58:22.188Z,12.50
2018-11-05T17:00:50.750Z,12.30
2018-11-05T17:03:19.311Z,12.20
2018-11-05T17:05:47.678Z,12.10
2018-11-05T17:08:16.156Z,11.90
2018-11-05T17:10:44.632Z,11.70
2018-11-05T17:13:13.131Z,11.60
2018-11-05T17:15:41.560Z,11.60
2018-11-05T17:18:10.004Z,11.50
2018-11-05T17:20:38.484Z,11.40
2018-11-05T17:23:06.956Z,11.30
2018-11-05T17:25:35.417Z,11.20
2018-11-05T17:28:03.882Z,11.30
2018-11-05T17:33:06.618Z,11.70
2018-11-05T17:35:35.116Z,11.80
2018-11-05T17:38:03.573Z,11.90
2018-11-05T17:40:32.071Z,11.90
2018-11-05T17:43:00.649Z,11.90
2018-11-05T17:45:29.138Z,11.90
2018-11-05T17:47:57.651Z,11.90
2018-11-05T17:50:26.090Z,11.90
2018-11-05T17:52:54.578Z,11.80
2018-11-05T17:55:23.107Z,11.80
2018-11-05T17:57:51.601Z,11.80
2018-11-05T18:00:21.282Z,11.80
2018-11-05T18:02:49.860Z,11.70
2018-11-05T18:05:18.534Z,11.70
2018-11-05T18:07:47.197Z,11.70
2018-11-05T18:10:16.002Z,11.70
2018-11-05T18:12:44.474Z,11.60
2018-11-05T18:15:13.447Z,11.60
2018-11-05T18:17:42.637Z,11.50
2018-11-05T18:20:12.377Z,11.50
2018-11-05T18:22:41.052Z,11.40
2018-11-05T18:25:11.993Z,11.30
2018-11-05T18:27:40.446Z,11.30
2018-11-05T18:30:09.673Z,11.30
2018-11-05T18:32:38.127Z,11.30
2018-11-05T18:35:08.555Z,11.30
2018-11-05T18:37:37.039Z,11.30
2018-11-05T18:40:07.980Z,11.30
2018-11-05T18:42:36.449Z,11.30
2018-11-05T18:45:05.060Z,11.30
2018-11-05T18:47:33.563Z,11.20
2018-11-05T18:50:02.149Z,11.20
2018-11-05T18:52:30.478Z,11.20
2018-11-05T18:54:58.918Z,11.20
2018-11-05T18:57:27.343Z,11.30
2018-11-05T18:59:55.809Z,11.40
2018-11-05T19:02:29.416Z,11.40
2018-11-05T19:04:57.827Z,11.40
2018-11-05T19:07:26.341Z,11.40
2018-11-05T19:09:54.770Z,11.40
2018-11-05T19:12:23.214Z,11.40
2018-11-05T19:14:51.714Z,11.50
2018-11-05T19:17:20.157Z,11.50
2018-11-05T19:19:48.638Z,11.50
2018-11-05T19:22:17.372Z,11.50
2018-11-05T19:24:45.910Z,11.60
2018-11-05T19:27:14.362Z,11.60
2018-11-05T19:29:42.806Z,11.60
2018-11-05T19:32:11.232Z,11.60
2018-11-05T19:34:39.703Z,11.70
2018-11-05T19:37:08.565Z,11.70
2018-11-05T19:39:36.997Z,11.70
2018-11-05T19:42:05.782Z,11.70
2018-11-05T19:44:34.252Z,11.80
2018-11-05T19:47:02.763Z,11.80
2018-11-05T19:49:31.266Z,11.80
2018-11-05T19:51:59.801Z,11.80
2018-11-05T19:54:28.310Z,11.80
2018-11-05T19:56:56.861Z,11.80
2018-11-05T19:59:25.468Z,11.80
2018-11-05T20:01:53.963Z,11.80
2018-11-05T20:04:22.459Z,11.80
2018-11-05T20:06:50.880Z,11.80
2018-11-05T20:09:19.360Z,11.80
2018-11-05T20:11:47.872Z,11.80
2018-11-05T20:14:16.309Z,11.80
2018-11-05T20:16:44.876Z,11.80
2018-11-05T20:19:13.387Z,11.80
2018-11-05T20:21:41.798Z,11.80
2018-11-05T20:24:10.253Z,11.80
2018-11-05T20:26:38.690Z,11.80
2018-11-05T20:29:07.243Z,11.80
2018-11-05T20:31:35.708Z,11.80
2018-11-05T20:34:04.669Z,11.70
2018-11-05T20:36:32.807Z,11.70
2018-11-05T20:39:01.287Z,11.70
2018-11-05T20:41:29.748Z,11.70
2018-11-05T20:43:58.179Z,11.60
2018-11-05T20:46:26.655Z,11.60
2018-11-05T20:48:55.184Z,11.60
2018-11-05T20:51:23.558Z,11.60
2018-11-05T20:53:52.038Z,11.50
2018-11-05T20:56:20.466Z,11.50
2018-11-05T20:58:48.935Z,11.50
2018-11-05T21:01:17.394Z,11.40
2018-11-05T21:03:45.798Z,11.40
2018-11-05T21:06:14.279Z,11.40
2018-11-05T21:08:42.726Z,11.40
2018-11-05T21:11:11.145Z,11.40
2018-11-05T21:13:39.683Z,11.40
2018-11-05T21:16:08.236Z,11.40
2018-11-05T21:18:36.763Z,11.30
2018-11-05T21:21:06.108Z,11.30
2018-11-05T21:23:34.508Z,11.30
2018-11-05T21:26:03.007Z,11.30
2018-11-05T21:28:31.616Z,11.20
2018-11-05T21:31:00.076Z,11.20
2018-11-05T21:33:28.546Z,11.20
2018-11-05T21:35:57.037Z,11.10
2018-11-05T21:38:28.434Z,11.00
2018-11-05T21:40:56.952Z,10.90
2018-11-05T21:43:25.436Z,10.90
2018-11-05T21:45:53.934Z,10.90
2018-11-05T21:48:22.347Z,10.90
2018-11-05T21:50:50.773Z,10.90
2018-11-05T21:53:19.219Z,10.80
2018-11-05T21:55:47.660Z,10.80
2018-11-05T21:58:16.110Z,10.80
2018-11-05T22:00:44.585Z,10.90
2018-11-05T22:03:15.630Z,10.90
2018-11-05T22:05:44.099Z,10.90
2018-11-05T22:08:12.572Z,11.00
2018-11-05T22:10:41.022Z,10.90
2018-11-05T22:13:09.481Z,10.90
2018-11-05T22:15:43.852Z,10.80
2018-11-05T22:18:12.356Z,10.70
2018-11-05T22:20:40.770Z,10.70
2018-11-05T22:23:09.195Z,10.70
2018-11-05T22:25:37.644Z,10.60
2018-11-05T22:28:06.362Z,10.60
2018-11-05T22:30:34.859Z,10.50
2018-11-05T22:33:03.617Z,10.50
2018-11-05T22:35:32.052Z,10.50
2018-11-05T22:38:00.578Z,10.40
2018-11-05T22:40:29.031Z,10.50
2018-11-05T22:42:57.453Z,10.40
2018-11-05T22:45:25.949Z,10.40
2018-11-05T22:47:54.399Z,10.40
2018-11-05T22:50:22.892Z,10.40
2018-11-05T22:52:51.329Z,10.40
2018-11-05T22:55:19.810Z,10.40
2018-11-05T22:57:48.253Z,10.40
2018-11-05T23:00:22.607Z,10.40
2018-11-05T23:02:56.304Z,10.40
2018-11-05T23:05:25.166Z,10.30
2018-11-05T23:07:54.759Z,10.30
2018-11-05T23:10:23.337Z,10.30
2018-11-05T23:12:51.862Z,10.30
2018-11-05T23:15:20.772Z,10.30
2018-11-05T23:17:49.500Z,10.30
2018-11-05T23:20:18.042Z,10.30
2018-11-05T23:22:46.481Z,10.30
2018-11-05T23:25:14.974Z,10.30
2018-11-05T23:27:43.454Z,10.30
2018-11-05T23:30:13.096Z,10.30
2018-11-05T23:32:41.796Z,10.30
2018-11-05T23:35:11.003Z,10.30
2018-11-05T23:37:40.388Z,10.40
2018-11-05T23:40:09.250Z,10.40
2018-11-05T23:42:38.373Z,10.50
2018-11-05T23:45:08.831Z,10.50
2018-11-05T23:47:37.321Z,10.50
2018-11-05T23:50:06.323Z,10.50
2018-11-05T23:52:34.734Z,10.50
2018-11-05T23:55:03.389Z,10.50
2018-11-05T23:57:31.901Z,10.50
